메인 페이지
METAR-TAF:

METAR-TAF

공항 :

Hyannis, 매사추세츠, 미국

위도: 41-40-19N, 경도: 070-16-11W, 고도: 15m

현재 날씨관측

예보는 1 시간 1분 전, 21:56시(UTC)에 발표되었습니다.
북동13kt, 순간 최대 풍속 19kt
온도 4°C
습도 60%
기압 1015 hPa
시정: 16.1km
고도 2300ft 상공 구름 조금

METAR: KHYA 312156Z 04013G19KT 10SM FEW023 04/M03 A2998 RMK AO2 SLP154 T00441028

시각: 18:57 (22:57 UTC)

예보

예보는 2 시간 37분 전, 20:20시(UTC)에 발표되었습니다.
예보 대상 시간: 31일 20시부터 01일 18시까지 (UTC)
북북동12kt, 순간 최대 풍속 19kt
시정: 10km
고도 2500ft 상공 구름 많음
31일 2100시부터 (UTC)
북북동11kt, 순간 최대 풍속 18kt
시정: 10km
고도 2500ft 상공 구름 보통
01일 0100시부터 (UTC)
북북동9kt
시정: 10km
고도 7000ft 상공 구름 많음
01일 0900시부터 (UTC)
북북동7kt
시정: 10km
고도 2500ft 상공 흐림

TAF: KHYA 312020Z 3120/0118 02012G19KT P6SM BKN025 FM312100 02011G18KT P6SM SCT025 FM010100 02009KT P6SM BKN070 FM010900 02007KT P6SM OVC025

4,000개 이상의 공항 관측 자료 및 예보 (METAR 및 TAF 보고).

지도상에서 검색 가능한 기상관측소가 노란 점과 빨간 점으로 표시되어 있습니다.

기상관측소 명을 보려면 표시 위로 마우스를 이동하세요.

날씨 관측과 예보를 보려면 클릭하세요.

지도 변경 : 확대하려면 엑스 표시가 있는 녹색 버튼, 축소하려면 빼기 표시가 있는 녹색 버튼, 다음 페이지의 지도를 보려면 녹색 화살표를 클릭하세요.


METAR-TAF: